Time;durP1;ratioP1;P1;durP2;ratioP2;P2;SDS_P1;SDS_P2;PMS_P1;PMS_P2;Temp;Humidity;BMP_temperature;BMP_pressure;BME280_temperature;BME280_humidity;BME280_pressure;Samples;Min_cycle;Max_cycle;Signal;HPM_P1;HPM_P2
2022/07/10 00:00:26;;;;;;;1.77;0.80;;;17.40;99.90;;;;;;4976399;28;20536;-78
2022/07/10 00:02:53;;;;;;;0.77;0.67;;;17.30;99.90;;;;;;4976301;28;20980;-78
2022/07/10 00:05:20;;;;;;;0.70;0.70;;;17.30;99.90;;;;;;4976543;28;20464;-77
2022/07/10 00:07:47;;;;;;;0.57;0.57;;;17.30;99.90;;;;;;4976539;28;20474;-77
2022/07/10 00:10:16;;;;;;;0.60;0.60;;;17.20;99.90;;;;;;4976495;28;20822;-78
2022/07/10 00:12:43;;;;;;;1.07;0.67;;;17.20;99.90;;;;;;4976006;28;20485;-78
2022/07/10 00:15:11;;;;;;;0.60;0.60;;;17.20;99.90;;;;;;4976335;28;20489;-77
2022/07/10 00:17:39;;;;;;;1.80;0.60;;;17.10;99.90;;;;;;4975977;28;20841;-77
2022/07/10 00:20:07;;;;;;;0.90;0.80;;;17.10;99.90;;;;;;4976003;28;20799;-77
2022/07/10 00:22:35;;;;;;;0.97;0.60;;;17.10;99.90;;;;;;4976259;28;20508;-77
2022/07/10 00:25:01;;;;;;;1.30;0.87;;;17.20;99.90;;;;;;4976223;28;20484;-77
2022/07/10 00:27:30;;;;;;;0.80;0.80;;;17.20;99.90;;;;;;4976122;28;20469;-77
2022/07/10 00:29:56;;;;;;;0.50;0.50;;;17.20;99.90;;;;;;4976151;28;20461;-78
2022/07/10 00:32:23;;;;;;;0.53;0.53;;;17.30;99.90;;;;;;4976074;28;20485;-77
2022/07/10 00:34:51;;;;;;;0.50;0.50;;;17.30;99.90;;;;;;4975979;28;20508;-77
2022/07/10 00:37:17;;;;;;;0.70;0.50;;;17.40;99.90;;;;;;4975931;28;20476;-78
2022/07/10 00:39:44;;;;;;;0.43;0.43;;;17.40;99.90;;;;;;4975936;28;20460;-77
2022/07/10 00:42:13;;;;;;;0.70;0.70;;;17.40;99.90;;;;;;4975903;28;20449;-78
2022/07/10 00:44:43;;;;;;;0.63;0.63;;;17.40;99.90;;;;;;4975852;28;20548;-77
2022/07/10 00:47:11;;;;;;;1.03;0.70;;;17.40;99.90;;;;;;4975713;28;20465;-78
2022/07/10 00:49:39;;;;;;;0.50;0.50;;;17.50;99.90;;;;;;4975791;28;20460;-78
2022/07/10 00:52:08;;;;;;;0.90;0.80;;;17.50;99.90;;;;;;4975372;28;20457;-77
2022/07/10 00:54:35;;;;;;;0.60;0.50;;;17.50;99.90;;;;;;4975575;28;20485;-77
2022/07/10 00:57:05;;;;;;;0.50;0.50;;;17.50;99.90;;;;;;4975213;28;20484;-77
2022/07/10 00:59:32;;;;;;;0.90;0.90;;;17.50;99.90;;;;;;4975374;28;20473;-77
2022/07/10 01:02:01;;;;;;;1.17;1.07;;;17.50;99.90;;;;;;4975496;28;20464;-77
2022/07/10 01:04:28;;;;;;;0.87;0.80;;;17.50;99.90;;;;;;4975458;28;20442;-77
2022/07/10 01:06:55;;;;;;;0.70;0.70;;;17.40;99.90;;;;;;4975436;28;20465;-77
2022/07/10 01:09:21;;;;;;;0.87;0.73;;;17.40;99.90;;;;;;4975394;28;20453;-77
2022/07/10 01:11:48;;;;;;;1.87;0.97;;;17.40;99.90;;;;;;4974699;28;20994;-77
2022/07/10 01:14:16;;;;;;;2.10;0.97;;;17.30;99.90;;;;;;4975226;28;20500;-77
2022/07/10 01:16:43;;;;;;;2.40;0.70;;;17.30;99.90;;;;;;4975197;28;20980;-77
2022/07/10 01:19:11;;;;;;;0.70;0.70;;;17.30;99.90;;;;;;4975219;28;20446;-77
2022/07/10 01:21:39;;;;;;;1.07;0.80;;;17.30;99.90;;;;;;4975171;28;20457;-77
2022/07/10 01:24:07;;;;;;;0.60;0.60;;;17.30;99.90;;;;;;4975144;28;20449;-77
2022/07/10 01:26:34;;;;;;;0.90;0.80;;;17.20;99.90;;;;;;4975056;28;20454;-77
2022/07/10 01:29:04;;;;;;;0.93;0.70;;;17.20;99.90;;;;;;4975106;28;20456;-77
2022/07/10 01:31:31;;;;;;;3.50;1.47;;;17.20;99.90;;;;;;4975078;28;20818;-77
2022/07/10 01:34:00;;;;;;;1.13;0.60;;;17.20;99.90;;;;;;4974921;28;20492;-77
2022/07/10 01:36:29;;;;;;;1.63;1.10;;;17.20;99.90;;;;;;4974938;28;20449;-77
2022/07/10 01:38:59;;;;;;;0.97;0.90;;;17.10;99.90;;;;;;4975709;28;20453;-77
2022/07/10 01:41:26;;;;;;;1.37;1.00;;;17.10;99.90;;;;;;4974564;28;20452;-77
2022/07/10 01:43:53;;;;;;;1.13;0.90;;;17.10;99.90;;;;;;4974506;28;20453;-77
2022/07/10 01:46:21;;;;;;;1.30;1.20;;;17.00;99.90;;;;;;4974780;28;20457;-77
2022/07/10 01:48:48;;;;;;;1.13;1.03;;;17.00;99.90;;;;;;4974790;28;20818;-77
2022/07/10 01:51:16;;;;;;;1.73;0.90;;;16.90;99.90;;;;;;4974428;28;20953;-77
2022/07/10 01:53:43;;;;;;;0.93;0.60;;;16.90;99.90;;;;;;4974309;28;20945;-77
2022/07/10 01:56:13;;;;;;;0.90;0.90;;;16.90;99.90;;;;;;4974639;28;20457;-77
2022/07/10 01:58:40;;;;;;;0.70;0.70;;;16.80;99.90;;;;;;4974315;28;20469;-77
2022/07/10 02:01:08;;;;;;;1.17;0.90;;;16.80;99.90;;;;;;4974336;28;20452;-77
2022/07/10 02:06:20;;;;;;;0.90;0.87;;;16.70;99.90;;;;;;4974315;28;20413;-77
2022/07/10 02:08:47;;;;;;;1.20;1.10;;;16.60;99.90;;;;;;4975199;28;20802;-77
2022/07/10 02:11:15;;;;;;;0.60;0.60;;;16.60;99.90;;;;;;4974273;28;20445;-78
2022/07/10 02:13:41;;;;;;;1.27;1.17;;;16.50;99.90;;;;;;4974527;28;20440;-77
2022/07/10 02:16:08;;;;;;;1.13;0.93;;;16.50;99.90;;;;;;4974459;28;20472;-77
2022/07/10 02:18:35;;;;;;;0.93;0.93;;;16.40;99.90;;;;;;4974387;28;20469;-77
2022/07/10 02:21:02;;;;;;;1.63;1.17;;;16.40;99.90;;;;;;4974426;28;20456;-77
2022/07/10 02:23:29;;;;;;;0.73;0.67;;;16.30;99.90;;;;;;4974438;28;20593;-77
2022/07/10 02:25:56;;;;;;;1.40;0.83;;;16.30;99.90;;;;;;4974393;28;20449;-77
2022/07/10 02:28:24;;;;;;;1.77;0.90;;;16.30;99.90;;;;;;4974297;28;20476;-77
2022/07/10 02:30:50;;;;;;;2.37;1.00;;;16.30;99.90;;;;;;4974382;28;20453;-77
2022/07/10 02:33:17;;;;;;;1.80;1.07;;;16.30;99.90;;;;;;4974334;28;20449;-77
2022/07/10 02:35:44;;;;;;;1.57;1.47;;;16.30;99.90;;;;;;4973982;28;20476;-77
2022/07/10 02:38:10;;;;;;;1.20;1.10;;;16.30;99.90;;;;;;4974189;28;20973;-77
2022/07/10 02:40:37;;;;;;;1.07;1.07;;;16.40;99.90;;;;;;4974301;28;20461;-77
2022/07/10 02:43:04;;;;;;;1.43;1.20;;;16.40;99.90;;;;;;4973933;28;20979;-77
2022/07/10 02:45:32;;;;;;;1.87;1.03;;;16.40;99.90;;;;;;4974246;28;20446;-77
2022/07/10 02:47:59;;;;;;;1.67;1.20;;;16.40;99.90;;;;;;4973903;28;20553;-77
2022/07/10 02:50:25;;;;;;;0.80;0.80;;;16.40;99.90;;;;;;4973856;28;20968;-77
2022/07/10 02:52:52;;;;;;;1.13;0.80;;;16.50;99.90;;;;;;4974133;28;20457;-77
2022/07/10 02:55:19;;;;;;;1.83;1.30;;;16.50;99.90;;;;;;4973745;28;20485;-77
2022/07/10 02:57:46;;;;;;;1.33;1.23;;;16.50;99.90;;;;;;4974039;28;20476;-77
2022/07/10 03:00:13;;;;;;;2.17;1.10;;;16.60;99.90;;;;;;4974080;28;20452;-77
2022/07/10 03:02:41;;;;;;;1.77;1.30;;;16.60;99.90;;;;;;4974090;28;20460;-77
2022/07/10 03:05:09;;;;;;;2.10;1.57;;;16.60;99.90;;;;;;4974136;28;20807;-77
2022/07/10 03:07:35;;;;;;;2.40;1.33;;;16.60;99.90;;;;;;4973630;28;20993;-77
2022/07/10 03:10:02;;;;;;;2.63;0.97;;;16.60;99.90;;;;;;4973970;28;20462;-77
2022/07/10 03:12:29;;;;;;;1.50;1.30;;;16.60;99.90;;;;;;4973495;28;20973;-77
2022/07/10 03:14:55;;;;;;;2.63;1.27;;;16.60;99.90;;;;;;4975334;28;20489;-77
2022/07/10 03:17:22;;;;;;;1.30;1.20;;;16.50;99.90;;;;;;4977102;28;20480;-77
2022/07/10 03:19:50;;;;;;;1.50;0.97;;;16.50;99.90;;;;;;4977425;28;20476;-77
2022/07/10 03:22:17;;;;;;;8.13;1.10;;;16.40;99.90;;;;;;4977082;28;20449;-77
2022/07/10 03:24:46;;;;;;;2.63;2.43;;;16.40;99.90;;;;;;4977312;28;20456;-77
2022/07/10 03:27:13;;;;;;;3.03;1.47;;;16.30;99.90;;;;;;4977234;28;20481;-77
2022/07/10 03:29:40;;;;;;;2.87;1.47;;;16.20;99.90;;;;;;4977250;28;20453;-77
2022/07/10 03:32:07;;;;;;;1.57;1.30;;;16.20;99.90;;;;;;4977219;28;20456;-77
2022/07/10 03:34:34;;;;;;;4.50;1.23;;;16.20;99.90;;;;;;4977059;28;20496;-77
2022/07/10 03:37:02;;;;;;;2.10;1.33;;;16.20;99.90;;;;;;4977055;28;20473;-77
2022/07/10 03:39:29;;;;;;;1.13;1.00;;;16.20;99.90;;;;;;4976779;28;20964;-77
2022/07/10 03:41:56;;;;;;;2.50;1.30;;;16.20;99.90;;;;;;4977033;28;20452;-77
2022/07/10 03:44:23;;;;;;;5.50;2.07;;;16.20;99.90;;;;;;4976976;28;20449;-77
2022/07/10 03:46:49;;;;;;;2.20;1.13;;;16.20;99.90;;;;;;4976915;28;20464;-77
2022/07/10 03:49:16;;;;;;;1.20;1.10;;;16.20;99.90;;;;;;4977066;28;20518;-77
2022/07/10 03:51:43;;;;;;;2.03;1.40;;;16.20;99.90;;;;;;4976872;28;20484;-77
2022/07/10 03:54:11;;;;;;;3.10;2.00;;;16.20;99.90;;;;;;4976805;28;20454;-77
2022/07/10 03:59:22;;;;;;;3.40;1.40;;;16.20;99.90;;;;;;4976597;28;20421;-77
2022/07/10 04:01:49;;;;;;;1.27;1.13;;;16.30;99.90;;;;;;4976386;28;20942;-77
2022/07/10 04:04:15;;;;;;;3.67;1.67;;;16.30;99.90;;;;;;4976600;28;20450;-77
2022/07/10 04:06:42;;;;;;;1.53;1.43;;;16.30;99.90;;;;;;4976535;28;20891;-77
2022/07/10 04:09:09;;;;;;;1.17;0.93;;;16.30;99.90;;;;;;4976570;28;20456;-77
2022/07/10 04:11:37;;;;;;;3.43;2.17;;;16.40;99.90;;;;;;4976033;28;21023;-77
2022/07/10 04:14:04;;;;;;;4.00;1.90;;;16.30;99.90;;;;;;4976224;28;20909;-77
2022/07/10 04:16:31;;;;;;;2.43;1.20;;;16.30;99.90;;;;;;4975955;28;21032;-77
2022/07/10 04:18:58;;;;;;;1.07;0.93;;;16.40;99.90;;;;;;4976363;28;20453;-77
2022/07/10 04:21:24;;;;;;;2.13;1.27;;;16.40;99.90;;;;;;4976010;28;20453;-77
2022/07/10 04:23:51;;;;;;;1.90;1.17;;;16.40;99.90;;;;;;4976290;28;20445;-77
2022/07/10 04:26:18;;;;;;;1.47;1.27;;;16.40;99.90;;;;;;4975089;28;20948;-77
2022/07/10 04:28:46;;;;;;;2.53;1.40;;;16.40;99.90;;;;;;4976155;28;20460;-77
2022/07/10 04:31:12;;;;;;;1.93;1.00;;;16.40;99.90;;;;;;4975822;28;20457;-77
2022/07/10 04:33:39;;;;;;;0.90;0.90;;;16.30;99.90;;;;;;4976113;28;20453;-77
2022/07/10 04:36:07;;;;;;;4.10;1.30;;;16.30;99.90;;;;;;4975677;28;20496;-77
2022/07/10 04:38:33;;;;;;;1.30;1.00;;;16.30;99.90;;;;;;4975633;28;20929;-77
2022/07/10 04:41:00;;;;;;;2.03;1.57;;;16.30;99.90;;;;;;4975915;28;20453;-77
2022/07/10 04:43:27;;;;;;;1.00;0.80;;;16.40;99.90;;;;;;4976567;28;20457;-77
2022/07/10 04:45:55;;;;;;;2.53;1.50;;;16.30;99.90;;;;;;4975887;28;20457;-77
2022/07/10 04:48:22;;;;;;;1.70;1.00;;;16.40;99.90;;;;;;4975786;28;20473;-77
2022/07/10 04:50:49;;;;;;;1.40;0.80;;;16.40;99.90;;;;;;4976134;28;20453;-77
2022/07/10 04:53:15;;;;;;;1.00;0.70;;;16.30;99.90;;;;;;4975700;28;20461;-77
2022/07/10 04:55:42;;;;;;;1.50;0.70;;;16.30;99.90;;;;;;4975594;28;20507;-77
2022/07/10 04:58:09;;;;;;;2.30;1.20;;;16.30;99.90;;;;;;4975324;28;20464;-77
2022/07/10 05:00:35;;;;;;;0.80;0.80;;;16.30;99.90;;;;;;4975544;28;20453;-77
2022/07/10 05:03:03;;;;;;;0.90;0.90;;;16.30;99.90;;;;;;4975510;28;20472;-77
2022/07/10 05:05:30;;;;;;;0.80;0.80;;;16.30;99.90;;;;;;4975458;28;20441;-77
2022/07/10 05:07:58;;;;;;;0.90;0.90;;;16.20;99.90;;;;;;4975357;28;20815;-77
2022/07/10 05:10:24;;;;;;;0.70;0.67;;;16.30;99.90;;;;;;4975361;28;20493;-77
2022/07/10 05:12:51;;;;;;;6.43;0.93;;;16.30;99.90;;;;;;4974841;28;20485;-77
2022/07/10 05:15:18;;;;;;;1.27;1.00;;;16.30;99.90;;;;;;4974918;28;20489;-77
2022/07/10 05:17:44;;;;;;;1.10;1.00;;;16.30;99.90;;;;;;4975210;28;20469;-77
2022/07/10 05:20:13;;;;;;;0.53;0.53;;;16.20;99.90;;;;;;4974912;28;20449;-77
2022/07/10 05:22:39;;;;;;;0.70;0.70;;;16.20;99.90;;;;;;4975185;28;20453;-77
2022/07/10 05:25:07;;;;;;;2.30;1.23;;;16.20;99.90;;;;;;4974894;28;20452;-77
2022/07/10 05:27:33;;;;;;;0.70;0.70;;;16.20;99.90;;;;;;4974691;28;20874;-77
2022/07/10 05:30:00;;;;;;;0.50;0.50;;;16.30;99.90;;;;;;4974781;28;20441;-77
2022/07/10 05:32:27;;;;;;;1.80;1.10;;;16.20;99.90;;;;;;4975034;28;20461;-77
2022/07/10 05:34:53;;;;;;;1.00;0.87;;;16.30;99.90;;;;;;4974919;28;20452;-77
2022/07/10 05:37:21;;;;;;;0.97;0.70;;;16.30;99.90;;;;;;4974618;28;20992;-77
2022/07/10 05:39:48;;;;;;;1.13;1.00;;;16.30;99.90;;;;;;4974900;28;20461;-77
2022/07/10 05:42:15;;;;;;;0.80;0.80;;;16.40;99.90;;;;;;4974874;28;20464;-77
2022/07/10 05:44:41;;;;;;;1.23;0.97;;;16.50;99.90;;;;;;4974572;28;20976;-77
2022/07/10 05:47:08;;;;;;;1.03;0.50;;;16.60;99.90;;;;;;4974504;28;21060;-77
2022/07/10 05:49:35;;;;;;;1.00;0.60;;;16.60;99.90;;;;;;4974810;28;20449;-77
2022/07/10 05:52:02;;;;;;;0.60;0.60;;;16.70;99.90;;;;;;4974695;28;20442;-77
2022/07/10 05:54:30;;;;;;;0.70;0.60;;;16.70;99.90;;;;;;4974413;28;20976;-77
2022/07/10 05:56:56;;;;;;;0.63;0.63;;;16.70;99.90;;;;;;4974522;28;20496;-77
2022/07/10 05:59:23;;;;;;;0.70;0.63;;;16.70;99.90;;;;;;4974682;28;20441;-77
2022/07/10 06:01:50;;;;;;;0.53;0.53;;;16.80;99.90;;;;;;4974609;28;20456;-77
2022/07/10 06:04:16;;;;;;;1.13;0.60;;;17.00;99.90;;;;;;4974620;28;20461;-77
2022/07/10 06:06:43;;;;;;;0.47;0.47;;;17.20;99.90;;;;;;4974509;28;20465;-77
2022/07/10 06:09:10;;;;;;;0.60;0.60;;;17.50;99.90;;;;;;4974277;28;20949;-77
2022/07/10 06:11:40;;;;;;;0.50;0.43;;;17.80;99.90;;;;;;4974325;28;20489;-78
2022/07/10 06:14:07;;;;;;;0.60;0.60;;;18.10;99.90;;;;;;4974519;28;20536;-77
2022/07/10 06:16:34;;;;;;;0.50;0.50;;;18.20;99.90;;;;;;4974367;28;20489;-78
2022/07/10 06:19:00;;;;;;;0.47;0.47;;;18.30;99.90;;;;;;4974462;28;20458;-78
2022/07/10 06:21:27;;;;;;;0.40;0.40;;;18.20;99.90;;;;;;4974458;28;20453;-78
2022/07/10 06:23:54;;;;;;;0.60;0.60;;;18.10;99.90;;;;;;4974098;28;20823;-78
2022/07/10 06:26:20;;;;;;;0.50;0.40;;;17.90;99.90;;;;;;4974314;28;20449;-78
2022/07/10 06:28:48;;;;;;;0.50;0.50;;;17.80;99.90;;;;;;4974390;28;20569;-78
2022/07/10 06:31:15;;;;;;;0.50;0.50;;;17.70;99.90;;;;;;4974049;28;20452;-78
2022/07/10 06:33:42;;;;;;;0.50;0.40;;;17.70;99.90;;;;;;4974351;28;20456;-78
2022/07/10 06:36:09;;;;;;;0.80;0.63;;;17.70;99.90;;;;;;4974230;28;20485;-78
2022/07/10 06:38:35;;;;;;;1.10;0.50;;;17.80;99.90;;;;;;4974246;28;20466;-78
2022/07/10 06:41:02;;;;;;;0.40;0.40;;;17.80;99.90;;;;;;4974244;28;20464;-78
2022/07/10 06:43:29;;;;;;;0.63;0.50;;;17.70;99.90;;;;;;4973950;28;20922;-78
2022/07/10 06:45:57;;;;;;;0.60;0.50;;;17.60;99.90;;;;;;4973938;28;20496;-78
2022/07/10 06:48:26;;;;;;;0.97;0.60;;;17.40;99.90;;;;;;4974252;28;20480;-78
2022/07/10 06:50:53;;;;;;;1.20;0.70;;;17.30;99.90;;;;;;4977293;28;20477;-77
2022/07/10 06:53:23;;;;;;;0.77;0.73;;;17.20;99.90;;;;;;4977617;28;20952;-78
2022/07/10 06:55:50;;;;;;;0.50;0.50;;;17.30;99.90;;;;;;4977905;28;20501;-78
2022/07/10 06:58:17;;;;;;;1.20;0.50;;;17.30;99.90;;;;;;4977806;28;20473;-78
2022/07/10 07:00:44;;;;;;;0.47;0.47;;;17.40;99.90;;;;;;4977755;28;20455;-78
2022/07/10 07:03:12;;;;;;;0.40;0.40;;;17.40;99.90;;;;;;4977460;28;20441;-77
2022/07/10 07:05:39;;;;;;;1.03;0.70;;;17.40;99.90;;;;;;4977706;28;20458;-77
2022/07/10 07:08:05;;;;;;;0.50;0.50;;;17.40;99.90;;;;;;4977613;28;20476;-77
2022/07/10 07:10:32;;;;;;;0.50;0.50;;;17.50;99.90;;;;;;4977599;28;20461;-77
2022/07/10 07:12:59;;;;;;;0.50;0.47;;;17.50;99.90;;;;;;4977109;28;20837;-77
2022/07/10 07:15:26;;;;;;;0.50;0.40;;;17.50;99.90;;;;;;4977435;28;20456;-77
2022/07/10 07:18:07;;;;;;;0.40;0.40;;;17.50;99.90;;;;;;4977462;28;20473;-77
2022/07/10 07:23:20;;;;;;;0.60;0.60;;;17.40;99.90;;;;;;4977549;28;20409;-77
2022/07/10 07:25:47;;;;;;;0.60;0.60;;;17.40;99.90;;;;;;4977364;28;20449;-77
2022/07/10 07:28:16;;;;;;;0.73;0.57;;;17.20;99.90;;;;;;4976889;28;20485;-77
2022/07/10 07:30:43;;;;;;;0.40;0.40;;;17.20;99.90;;;;;;4977272;28;20457;-77
2022/07/10 07:33:09;;;;;;;0.50;0.40;;;17.10;99.90;;;;;;4977211;28;20449;-77
2022/07/10 07:35:38;;;;;;;0.80;0.67;;;17.20;99.90;;;;;;4976805;28;20430;-77
2022/07/10 07:38:05;;;;;;;0.80;0.60;;;17.40;99.90;;;;;;4977039;28;20474;-77
2022/07/10 07:40:32;;;;;;;0.43;0.40;;;17.50;99.90;;;;;;4977109;28;20457;-78
2022/07/10 07:42:59;;;;;;;0.60;0.60;;;17.60;99.90;;;;;;4977038;28;20861;-78
2022/07/10 07:45:27;;;;;;;0.50;0.40;;;17.70;99.90;;;;;;4976672;28;20453;-77
2022/07/10 07:47:55;;;;;;;0.50;0.50;;;17.80;99.90;;;;;;4976603;28;21013;-78
2022/07/10 07:50:23;;;;;;;0.40;0.40;;;17.80;99.90;;;;;;4976890;28;20508;-78
2022/07/10 07:52:51;;;;;;;0.83;0.70;;;18.00;99.90;;;;;;4976926;28;20464;-78
2022/07/10 07:55:19;;;;;;;0.40;0.40;;;18.50;99.90;;;;;;4976597;28;20983;-78
2022/07/10 07:57:47;;;;;;;0.53;0.53;;;19.20;99.90;;;;;;4976342;28;20489;-78
2022/07/10 08:00:17;;;;;;;0.70;0.50;;;19.80;99.90;;;;;;4976237;28;20449;-78
2022/07/10 08:02:44;;;;;;;1.23;0.53;;;19.90;99.90;;;;;;4975946;28;20450;-78
2022/07/10 08:05:11;;;;;;;0.40;0.40;;;19.70;99.90;;;;;;4976649;28;20456;-78
2022/07/10 08:07:39;;;;;;;0.60;0.50;;;19.50;99.90;;;;;;4976555;28;20472;-78
2022/07/10 08:10:11;;;;;;;0.50;0.50;;;19.50;99.90;;;;;;4976292;28;20835;-78
2022/07/10 08:12:38;;;;;;;0.57;0.50;;;19.50;99.90;;;;;;4976223;28;20492;-78
2022/07/10 08:15:08;;;;;;;1.13;0.77;;;19.40;99.90;;;;;;4976497;28;20821;-78
2022/07/10 08:17:35;;;;;;;0.60;0.57;;;19.30;99.90;;;;;;4976301;28;20485;-78
2022/07/10 08:20:02;;;;;;;0.50;0.50;;;19.20;99.90;;;;;;4976374;28;20445;-78
2022/07/10 08:22:29;;;;;;;0.50;0.50;;;19.20;99.90;;;;;;4976347;28;20456;-78
2022/07/10 08:24:56;;;;;;;0.50;0.50;;;19.40;99.90;;;;;;4976299;28;20449;-78
2022/07/10 08:27:24;;;;;;;0.50;0.50;;;19.70;99.90;;;;;;4976153;28;20497;-78
2022/07/10 08:29:51;;;;;;;0.50;0.50;;;20.00;99.90;;;;;;4975925;28;20457;-78
2022/07/10 08:32:18;;;;;;;2.70;0.60;;;20.50;99.90;;;;;;4976167;28;20460;-78
2022/07/10 08:34:45;;;;;;;0.40;0.30;;;20.40;99.90;;;;;;4975844;28;20488;-78
2022/07/10 08:37:11;;;;;;;0.60;0.50;;;20.20;99.90;;;;;;4975650;28;20488;-78
2022/07/10 08:39:39;;;;;;;2.33;0.67;;;20.00;99.90;;;;;;4976095;28;20433;-78
2022/07/10 08:42:08;;;;;;;0.40;0.40;;;19.80;99.90;;;;;;4976052;28;20488;-78
2022/07/10 08:44:36;;;;;;;0.53;0.50;;;19.70;99.90;;;;;;4975998;28;20464;-78
2022/07/10 08:47:03;;;;;;;0.83;0.57;;;19.50;99.90;;;;;;4975520;28;20480;-78
2022/07/10 08:49:33;;;;;;;0.40;0.40;;;19.30;99.90;;;;;;4975589;28;20511;-78
2022/07/10 08:52:04;;;;;;;2.50;0.53;;;19.10;99.90;;;;;;4975782;28;20473;-78
2022/07/10 08:54:32;;;;;;;0.53;0.50;;;18.90;99.90;;;;;;4975779;28;20835;-77
2022/07/10 08:56:59;;;;;;;0.40;0.40;;;19.10;99.90;;;;;;4975563;28;20575;-78
2022/07/10 08:59:27;;;;;;;0.60;0.53;;;19.50;99.90;;;;;;4975646;28;20468;-78
2022/07/10 09:01:55;;;;;;;1.40;0.60;;;19.80;99.90;;;;;;4975288;28;20797;-78
2022/07/10 09:04:25;;;;;;;1.23;0.60;;;19.80;99.90;;;;;;4975558;28;20461;-78
2022/07/10 09:06:52;;;;;;;0.60;0.60;;;20.00;99.90;;;;;;4975145;28;20465;-78
2022/07/10 09:09:20;;;;;;;0.70;0.70;;;20.20;99.90;;;;;;4975191;28;20452;-78
2022/07/10 09:11:47;;;;;;;0.50;0.50;;;20.40;99.90;;;;;;4975036;28;20492;-79
2022/07/10 09:14:16;;;;;;;2.73;0.60;;;20.20;99.90;;;;;;4975280;28;20480;-78
2022/07/10 09:16:45;;;;;;;0.50;0.40;;;20.20;99.90;;;;;;4975262;28;20493;-78
2022/07/10 09:19:18;;;;;;;1.07;0.50;;;20.10;99.90;;;;;;4975272;28;20885;-78
2022/07/10 09:21:45;;;;;;;0.50;0.50;;;20.10;99.90;;;;;;4975235;28;20449;-78
2022/07/10 09:24:13;;;;;;;2.53;0.60;;;20.20;99.90;;;;;;4975276;28;20438;-78
2022/07/10 09:26:42;;;;;;;0.50;0.50;;;20.30;99.90;;;;;;4975440;28;20472;-78
2022/07/10 09:29:09;;;;;;;0.80;0.80;;;20.50;99.90;;;;;;4975138;28;20457;-78
2022/07/10 09:31:52;;;;;;;0.50;0.50;;;20.70;99.90;;;;;;4975891;28;20798;-78
2022/07/10 09:34:36;;;;;;;0.53;0.53;;;20.70;99.90;;;;;;4974728;28;20448;-81
2022/07/10 09:37:18;;;;;;;0.60;0.53;;;20.50;99.90;;;;;;4974897;28;20496;-78
2022/07/10 09:39:52;;;;;;;0.83;0.70;;;20.30;99.90;;;;;;4975033;28;20440;-78
2022/07/10 09:42:29;;;;;;;0.50;0.50;;;20.20;99.90;;;;;;4974956;28;20440;-78
2022/07/10 09:45:19;;;;;;;1.20;0.67;;;20.30;99.90;;;;;;4974976;28;20441;-78
2022/07/10 09:47:47;;;;;;;2.40;1.30;;;20.40;99.90;;;;;;4974856;28;20472;-78
2022/07/10 09:50:27;;;;;;;1.90;0.80;;;20.70;99.90;;;;;;4974548;28;20956;-78
2022/07/10 09:52:54;;;;;;;0.50;0.47;;;20.90;99.90;;;;;;4974851;28;20441;-78
2022/07/10 09:55:23;;;;;;;0.73;0.70;;;21.10;99.90;;;;;;4974793;28;20479;-78
2022/07/10 09:57:56;;;;;;;0.77;0.77;;;21.30;99.90;;;;;;4974590;28;20965;-78
2022/07/10 10:00:26;;;;;;;0.80;0.80;;;21.30;99.90;;;;;;4974777;28;20464;-77
2022/07/10 10:02:56;;;;;;;0.50;0.50;;;21.20;99.90;;;;;;4974735;28;20433;-78
2022/07/10 10:05:32;;;;;;;0.60;0.57;;;20.90;99.90;;;;;;4974441;28;20437;-78
2022/07/10 10:08:02;;;;;;;1.53;0.70;;;20.80;99.90;;;;;;4974627;28;20493;-78
2022/07/10 10:10:32;;;;;;;0.63;0.60;;;20.70;99.90;;;;;;4974603;28;20452;-78
2022/07/10 10:13:03;;;;;;;0.67;0.63;;;20.80;99.90;;;;;;4974137;28;20484;-78
2022/07/10 10:15:32;;;;;;;1.23;0.77;;;21.10;99.90;;;;;;4975072;28;20754;-78
2022/07/10 10:18:00;;;;;;;0.73;0.70;;;21.40;99.90;;;;;;4974412;28;20510;-78
2022/07/10 10:20:37;;;;;;;0.60;0.60;;;21.50;99.90;;;;;;4974536;28;20449;-78
2022/07/10 10:23:05;;;;;;;1.13;0.80;;;21.50;99.90;;;;;;4974310;28;20782;-78
2022/07/10 10:25:34;;;;;;;0.73;0.73;;;21.30;99.90;;;;;;4976826;28;20960;-78
2022/07/10 10:28:03;;;;;;;0.80;0.60;;;21.10;99.90;;;;;;4978100;28;21004;-78
2022/07/10 10:30:30;;;;;;;0.50;0.50;;;20.90;99.90;;;;;;4978382;28;20452;-77
2022/07/10 10:32:57;;;;;;;1.00;0.90;;;20.80;99.90;;;;;;4978124;28;20441;-78
2022/07/10 10:35:46;;;;;;;2.13;0.50;;;20.80;99.90;;;;;;4978233;28;20538;-78
2022/07/10 10:38:13;;;;;;;0.90;0.60;;;20.70;99.90;;;;;;4978154;28;20485;-78
2022/07/10 10:40:40;;;;;;;1.50;0.67;;;20.80;99.90;;;;;;4978991;28;20448;-78
2022/07/10 10:43:18;;;;;;;0.60;0.50;;;20.90;99.90;;;;;;4978144;28;20465;-78
2022/07/10 10:45:44;;;;;;;0.50;0.40;;;21.10;99.90;;;;;;4977822;28;20940;-78
2022/07/10 10:48:13;;;;;;;2.27;0.53;;;21.20;99.90;;;;;;4978037;28;20460;-78
2022/07/10 10:50:42;;;;;;;0.90;0.90;;;21.20;99.90;;;;;;4978001;28;20452;-78
2022/07/10 10:53:17;;;;;;;0.50;0.50;;;21.10;99.90;;;;;;4977981;28;20449;-78
2022/07/10 10:56:21;;;;;;;0.60;0.50;;;21.10;99.90;;;;;;4977919;28;20448;-78
2022/07/10 10:58:48;;;;;;;0.70;0.70;;;21.20;99.80;;;;;;4977767;28;20491;-78
2022/07/10 11:01:26;;;;;;;0.60;0.60;;;21.10;98.90;;;;;;4977813;28;20452;-78
2022/07/10 11:04:14;;;;;;;0.57;0.50;;;21.10;99.60;;;;;;4977861;28;20498;-78
2022/07/10 11:06:42;;;;;;;0.50;0.40;;;21.30;99.90;;;;;;4977417;28;20500;-78
2022/07/10 11:09:25;;;;;;;1.07;0.80;;;21.30;98.80;;;;;;4977648;28;20456;-78
2022/07/10 11:12:05;;;;;;;0.60;0.60;;;21.30;99.00;;;;;;4977213;28;21059;-78
2022/07/10 11:14:33;;;;;;;0.53;0.53;;;21.60;98.90;;;;;;4977631;28;20483;-78
2022/07/10 11:17:00;;;;;;;3.33;0.80;;;21.80;98.60;;;;;;4977382;28;20491;-78
2022/07/10 11:19:28;;;;;;;0.63;0.63;;;22.00;98.90;;;;;;4977412;28;20456;-78
2022/07/10 11:22:33;;;;;;;0.90;0.63;;;22.10;98.60;;;;;;4977472;28;20456;-78
2022/07/10 11:25:14;;;;;;;0.77;0.70;;;22.20;95.90;;;;;;4977468;28;20437;-78
2022/07/10 11:28:04;;;;;;;0.50;0.50;;;22.30;96.20;;;;;;4977327;28;20572;-78
2022/07/10 11:30:44;;;;;;;0.53;0.50;;;22.20;96.10;;;;;;4977257;28;20448;-78
2022/07/10 11:33:11;;;;;;;0.60;0.60;;;21.90;96.70;;;;;;4977259;28;20414;-78
2022/07/10 11:35:39;;;;;;;0.60;0.50;;;21.50;96.90;;;;;;4976989;28;20457;-78
2022/07/10 11:38:06;;;;;;;1.73;0.60;;;21.40;98.00;;;;;;4977179;28;20924;-78
2022/07/10 11:40:38;;;;;;;0.63;0.63;;;21.40;97.90;;;;;;4977155;28;20440;-78
2022/07/10 11:43:06;;;;;;;0.60;0.60;;;21.50;98.60;;;;;;4977144;28;20464;-78
2022/07/10 11:45:36;;;;;;;0.40;0.40;;;21.50;96.10;;;;;;4977068;28;20452;-78
2022/07/10 11:48:04;;;;;;;0.70;0.60;;;21.70;96.60;;;;;;4977385;28;20476;-78
2022/07/10 11:50:36;;;;;;;0.50;0.50;;;21.70;97.80;;;;;;4976984;28;20453;-78
2022/07/10 11:53:03;;;;;;;0.50;0.50;;;21.80;96.70;;;;;;4976973;28;20515;-78
2022/07/10 11:55:31;;;;;;;0.43;0.43;;;21.80;96.80;;;;;;4976861;28;20449;-78
2022/07/10 11:57:59;;;;;;;0.50;0.50;;;21.70;96.30;;;;;;4976679;28;20489;-78
2022/07/10 12:00:27;;;;;;;0.90;0.67;;;21.60;96.20;;;;;;4976552;28;20441;-78
2022/07/10 12:02:55;;;;;;;0.50;0.43;;;21.60;96.20;;;;;;4976752;28;20792;-78
2022/07/10 12:05:35;;;;;;;0.53;0.53;;;21.70;94.30;;;;;;4976384;28;20948;-78
2022/07/10 12:08:02;;;;;;;0.50;0.50;;;21.60;94.00;;;;;;4976737;28;20468;-78
2022/07/10 12:10:30;;;;;;;0.40;0.40;;;21.50;96.00;;;;;;4976625;28;20452;-78
2022/07/10 12:13:06;;;;;;;0.50;0.50;;;21.50;95.30;;;;;;4976159;28;20485;-78
2022/07/10 12:15:34;;;;;;;0.53;0.40;;;21.60;96.40;;;;;;4976250;28;20798;-78
2022/07/10 12:18:00;;;;;;;0.60;0.50;;;21.50;94.80;;;;;;4976318;28;20485;-78
2022/07/10 12:20:28;;;;;;;0.40;0.40;;;21.50;94.80;;;;;;4976445;28;20851;-78
2022/07/10 12:22:55;;;;;;;0.40;0.40;;;21.50;94.00;;;;;;4977174;28;20456;-78
2022/07/10 12:25:22;;;;;;;0.40;0.40;;;21.50;94.40;;;;;;4976305;28;20801;-78
2022/07/10 12:27:49;;;;;;;0.50;0.50;;;21.50;92.90;;;;;;4976318;28;20461;-77
2022/07/10 12:30:17;;;;;;;0.70;0.60;;;21.50;93.80;;;;;;4976468;28;20472;-78
2022/07/10 12:32:44;;;;;;;1.07;0.50;;;21.40;94.10;;;;;;4975911;28;20449;-80
2022/07/10 12:35:14;;;;;;;1.57;0.50;;;21.30;93.70;;;;;;4976887;28;20449;-79
2022/07/10 12:37:48;;;;;;;0.70;0.70;;;21.30;93.40;;;;;;4976029;28;20493;-79
2022/07/10 12:40:30;;;;;;;0.60;0.60;;;21.30;93.70;;;;;;4976371;28;20436;-79
2022/07/10 12:43:03;;;;;;;0.40;0.40;;;21.30;92.40;;;;;;4976038;28;20429;-79
2022/07/10 12:45:31;;;;;;;0.90;0.70;;;21.30;92.00;;;;;;4975671;28;20937;-79
2022/07/10 12:47:57;;;;;;;0.50;0.50;;;21.20;92.60;;;;;;4975403;28;20465;-79
2022/07/10 12:50:25;;;;;;;5.13;0.50;;;21.10;92.00;;;;;;4975553;28;20822;-79
2022/07/10 12:53:08;;;;;;;0.50;0.50;;;21.10;92.90;;;;;;4975804;28;20449;-79
2022/07/10 12:55:41;;;;;;;1.43;0.50;;;21.10;93.20;;;;;;4975875;28;20460;-79
2022/07/10 12:58:11;;;;;;;1.03;0.50;;;21.10;92.20;;;;;;4975458;28;20867;-78
2022/07/10 13:00:48;;;;;;;0.50;0.40;;;20.90;92.30;;;;;;4975398;28;20922;-79
2022/07/10 13:03:19;;;;;;;0.30;0.30;;;20.90;91.60;;;;;;4975690;28;20480;-80